Time;durP1;ratioP1;P1;durP2;ratioP2;P2;SDS_P1;SDS_P2;PMS_P1;PMS_P2;Temp;Humidity;BMP_temperature;BMP_pressure;BME280_temperature;BME280_humidity;BME280_pressure;Samples;Min_cycle;Max_cycle;Signal;HPM_P1;HPM_P2
2023/07/05 00:02:08;;;;;;;0.20;0.10;;;;;;;;;;4987962;28;20647;-84
2023/07/05 00:04:50;;;;;;;0.20;0.20;;;;;;;;;;4982585;28;20053;-85
2023/07/05 00:07:26;;;;;;;0.22;0.10;;;;;;;;;;4999835;28;20041;-82
2023/07/05 00:09:52;;;;;;;0.20;0.10;;;;;;;;;;4985708;28;20057;-84
2023/07/05 00:12:29;;;;;;;0.20;0.10;;;;;;;;;;4990917;28;20048;-84
2023/07/05 00:14:57;;;;;;;0.20;0.10;;;;;;;;;;5004116;28;20243;-84
2023/07/05 00:17:23;;;;;;;0.20;0.15;;;;;;;;;;5002532;28;20046;-80
2023/07/05 00:19:50;;;;;;;0.22;0.10;;;;;;;;;;5005565;28;20418;-83
2023/07/05 00:22:16;;;;;;;0.40;0.20;;;;;;;;;;4987332;28;20041;-82
2023/07/05 00:24:42;;;;;;;0.20;0.10;;;;;;;;;;4991310;28;20101;-83
2023/07/05 00:27:08;;;;;;;0.20;0.10;;;;;;;;;;4981373;28;20095;-83
2023/07/05 00:29:34;;;;;;;0.20;0.10;;;;;;;;;;5001654;28;20053;-80
2023/07/05 00:32:00;;;;;;;0.20;0.10;;;;;;;;;;4986499;28;20528;-84
2023/07/05 00:34:26;;;;;;;0.20;0.10;;;;;;;;;;4985567;28;20049;-84
2023/07/05 00:36:52;;;;;;;0.50;0.15;;;;;;;;;;4982531;28;20436;-81
2023/07/05 00:39:19;;;;;;;0.20;0.10;;;;;;;;;;4995174;28;20056;-83
2023/07/05 00:41:49;;;;;;;0.20;0.10;;;;;;;;;;4982229;28;20052;-83
2023/07/05 00:44:15;;;;;;;0.20;0.15;;;;;;;;;;5000461;28;20041;-82
2023/07/05 00:46:44;;;;;;;0.20;0.10;;;;;;;;;;4987954;28;20087;-81
2023/07/05 00:49:18;;;;;;;0.20;0.10;;;;;;;;;;4982143;28;20072;-80
2023/07/05 00:51:45;;;;;;;0.32;0.32;;;;;;;;;;4987897;28;20033;-81
2023/07/05 00:54:24;;;;;;;0.20;0.10;;;;;;;;;;5000250;28;20049;-85
2023/07/05 00:56:54;;;;;;;0.20;0.10;;;;;;;;;;4995060;28;20083;-82
2023/07/05 00:59:21;;;;;;;0.20;0.10;;;;;;;;;;4988711;28;20063;-83
2023/07/05 01:01:47;;;;;;;0.20;0.10;;;;;;;;;;4988734;28;20040;-84
2023/07/05 01:04:13;;;;;;;0.20;0.10;;;;;;;;;;4990185;28;20049;-83
2023/07/05 01:06:39;;;;;;;0.20;0.10;;;;;;;;;;5002211;28;20045;-80
2023/07/05 01:09:06;;;;;;;0.25;0.20;;;;;;;;;;4979830;28;20296;-82
2023/07/05 01:11:41;;;;;;;0.20;0.10;;;;;;;;;;5008387;28;20045;-83
2023/07/05 01:14:19;;;;;;;0.20;0.10;;;;;;;;;;4991612;28;20037;-81
2023/07/05 01:16:54;;;;;;;0.20;0.10;;;;;;;;;;4988880;28;20038;-83
2023/07/05 01:19:29;;;;;;;0.20;0.10;;;;;;;;;;5001043;28;20137;-83
2023/07/05 01:22:05;;;;;;;0.22;0.22;;;;;;;;;;4976987;28;20068;-84
2023/07/05 01:24:31;;;;;;;0.20;0.10;;;;;;;;;;4991196;28;20033;-83
2023/07/05 01:26:58;;;;;;;0.30;0.20;;;;;;;;;;4986191;28;20124;-84
2023/07/05 01:29:27;;;;;;;0.20;0.17;;;;;;;;;;4981599;28;20044;-85
2023/07/05 01:31:59;;;;;;;0.20;0.15;;;;;;;;;;5037059;22;20469;-84
2023/07/05 01:34:34;;;;;;;0.85;0.50;;;;;;;;;;5049642;28;20615;-87
2023/07/05 01:40:22;;;;;;;0.20;0.10;;;;;;;;;;5041513;28;20039;-87
2023/07/05 01:42:51;;;;;;;0.20;0.10;;;;;;;;;;5051993;28;20040;-84
2023/07/05 01:45:19;;;;;;;0.20;0.10;;;;;;;;;;5029216;28;20049;-83
2023/07/05 01:47:51;;;;;;;0.20;0.10;;;;;;;;;;4993083;28;20049;-85
2023/07/05 01:50:27;;;;;;;0.20;0.10;;;;;;;;;;5007350;28;20149;-85
2023/07/05 01:53:12;;;;;;;0.20;0.10;;;;;;;;;;4995207;28;20133;-86
2023/07/05 01:55:59;;;;;;;0.20;0.10;;;;;;;;;;5012028;28;20886;-85
2023/07/05 01:58:28;;;;;;;0.20;0.15;;;;;;;;;;5016014;28;20050;-86
2023/07/05 02:00:55;;;;;;;0.20;0.10;;;;;;;;;;4996868;28;20045;-86
2023/07/05 02:03:22;;;;;;;0.20;0.15;;;;;;;;;;5005810;28;20509;-88
2023/07/05 02:05:49;;;;;;;0.20;0.13;;;;;;;;;;5008611;28;20045;-89
2023/07/05 02:08:15;;;;;;;0.35;0.20;;;;;;;;;;5008805;28;20072;-88
2023/07/05 02:10:41;;;;;;;0.52;0.20;;;;;;;;;;5011284;28;20036;-88
2023/07/05 02:13:10;;;;;;;0.20;0.10;;;;;;;;;;5010247;28;20133;-85
2023/07/05 02:15:40;;;;;;;0.35;0.30;;;;;;;;;;5000447;28;20483;-84
2023/07/05 02:18:07;;;;;;;0.20;0.10;;;;;;;;;;5009700;28;20494;-86
2023/07/05 02:20:33;;;;;;;0.75;0.25;;;;;;;;;;5026698;28;20349;-86
2023/07/05 02:22:59;;;;;;;0.30;0.22;;;;;;;;;;5001435;28;20049;-87
2023/07/05 02:25:25;;;;;;;0.57;0.30;;;;;;;;;;5013100;28;20574;-84
2023/07/05 02:27:51;;;;;;;0.35;0.30;;;;;;;;;;5018364;28;20409;-86
2023/07/05 02:30:18;;;;;;;0.20;0.10;;;;;;;;;;4991744;28;20556;-82
2023/07/05 02:32:44;;;;;;;0.20;0.20;;;;;;;;;;5006332;28;20045;-83
2023/07/05 02:35:10;;;;;;;0.20;0.10;;;;;;;;;;5008728;28;20049;-82
2023/07/05 02:37:37;;;;;;;0.20;0.10;;;;;;;;;;5006933;28;20033;-82
2023/07/05 02:40:04;;;;;;;0.20;0.10;;;;;;;;;;5008634;28;20037;-82
2023/07/05 02:42:30;;;;;;;0.20;0.20;;;;;;;;;;5004527;28;20072;-82
2023/07/05 02:44:56;;;;;;;0.20;0.10;;;;;;;;;;5015784;28;20494;-84
2023/07/05 02:47:23;;;;;;;0.20;0.10;;;;;;;;;;5012718;28;20366;-81
2023/07/05 02:49:49;;;;;;;0.20;0.10;;;;;;;;;;5003514;28;20037;-82
2023/07/05 02:52:15;;;;;;;0.82;0.43;;;;;;;;;;5016341;28;20054;-80
2023/07/05 02:54:42;;;;;;;0.20;0.10;;;;;;;;;;4996960;28;20257;-81
2023/07/05 02:57:08;;;;;;;4.47;0.40;;;;;;;;;;5006500;28;20041;-82
2023/07/05 02:59:34;;;;;;;0.40;0.32;;;;;;;;;;5009332;28;21347;-79
2023/07/05 03:02:00;;;;;;;0.20;0.10;;;;;;;;;;5012328;28;20046;-81
2023/07/05 03:04:27;;;;;;;0.20;0.10;;;;;;;;;;5011240;28;20526;-80
2023/07/05 03:06:53;;;;;;;0.30;0.20;;;;;;;;;;5013690;28;20490;-80
2023/07/05 03:09:19;;;;;;;0.20;0.10;;;;;;;;;;5012652;28;21291;-80
2023/07/05 03:11:45;;;;;;;0.20;0.20;;;;;;;;;;5004974;28;20049;-83
2023/07/05 03:14:11;;;;;;;0.20;0.10;;;;;;;;;;5010422;28;21466;-80
2023/07/05 03:16:37;;;;;;;0.30;0.20;;;;;;;;;;5011306;28;20111;-81
2023/07/05 03:19:03;;;;;;;0.40;0.38;;;;;;;;;;5009987;28;20568;-81
2023/07/05 03:21:29;;;;;;;0.20;0.10;;;;;;;;;;5004385;28;20642;-81
2023/07/05 03:23:55;;;;;;;1.38;0.38;;;;;;;;;;4997176;28;20502;-81
2023/07/05 03:26:21;;;;;;;0.43;0.30;;;;;;;;;;4997103;28;20044;-83
2023/07/05 03:28:48;;;;;;;0.20;0.10;;;;;;;;;;5000153;28;20072;-81
2023/07/05 03:31:15;;;;;;;0.20;0.10;;;;;;;;;;5002911;28;20095;-83
2023/07/05 03:33:41;;;;;;;0.20;0.10;;;;;;;;;;4994708;28;20037;-80
2023/07/05 03:36:12;;;;;;;0.20;0.10;;;;;;;;;;5002336;28;20038;-79
2023/07/05 03:38:38;;;;;;;0.20;0.00;;;;;;;;;;5000609;28;20049;-81
2023/07/05 03:41:04;;;;;;;0.50;0.45;;;;;;;;;;5001388;28;20033;-80
2023/07/05 03:43:32;;;;;;;0.38;0.28;;;;;;;;;;4999928;28;20053;-81
2023/07/05 03:46:01;;;;;;;0.28;0.28;;;;;;;;;;4997785;28;20053;-82
2023/07/05 03:48:28;;;;;;;0.30;0.17;;;;;;;;;;4997605;28;20142;-81
2023/07/05 03:50:58;;;;;;;0.25;0.25;;;;;;;;;;5004310;28;20509;-84
2023/07/05 03:53:25;;;;;;;0.20;0.10;;;;;;;;;;5016055;28;20129;-81
2023/07/05 03:55:51;;;;;;;0.47;0.32;;;;;;;;;;4998770;28;20050;-82
2023/07/05 03:58:18;;;;;;;0.52;0.52;;;;;;;;;;5010485;28;20401;-81
2023/07/05 04:00:45;;;;;;;0.20;0.10;;;;;;;;;;4998527;28;20083;-81
2023/07/05 04:03:11;;;;;;;0.20;0.10;;;;;;;;;;5012711;28;20157;-83
2023/07/05 04:05:39;;;;;;;0.30;0.20;;;;;;;;;;5010812;28;20227;-81
2023/07/05 04:08:05;;;;;;;0.20;0.20;;;;;;;;;;5005446;28;20045;-82
2023/07/05 04:10:31;;;;;;;0.20;0.10;;;;;;;;;;4996146;28;20383;-83
2023/07/05 04:13:06;;;;;;;0.20;0.20;;;;;;;;;;5001582;28;20054;-84
2023/07/05 04:15:32;;;;;;;0.20;0.10;;;;;;;;;;5007352;28;20788;-85
2023/07/05 04:18:01;;;;;;;0.55;0.55;;;;;;;;;;4998710;28;20038;-83
2023/07/05 04:20:30;;;;;;;0.22;0.20;;;;;;;;;;5008531;28;20919;-84
2023/07/05 04:22:58;;;;;;;0.20;0.10;;;;;;;;;;4985646;28;20439;-83
2023/07/05 04:25:24;;;;;;;0.45;0.30;;;;;;;;;;4985017;28;21548;-81
2023/07/05 04:27:50;;;;;;;0.32;0.32;;;;;;;;;;4999364;28;20675;-80
2023/07/05 04:30:16;;;;;;;0.20;0.20;;;;;;;;;;4998682;28;20049;-82
2023/07/05 04:32:42;;;;;;;0.20;0.10;;;;;;;;;;5001614;28;20095;-82
2023/07/05 04:35:08;;;;;;;0.30;0.20;;;;;;;;;;4999363;28;20059;-83
2023/07/05 04:37:34;;;;;;;0.30;0.30;;;;;;;;;;4995386;28;20316;-82
2023/07/05 04:40:00;;;;;;;0.90;0.52;;;;;;;;;;4982331;28;20390;-82
2023/07/05 04:42:26;;;;;;;0.20;0.20;;;;;;;;;;4989446;28;20481;-82
2023/07/05 04:44:52;;;;;;;0.20;0.10;;;;;;;;;;4997019;28;20041;-81
2023/07/05 04:47:18;;;;;;;0.20;0.10;;;;;;;;;;4997727;28;20077;-83
2023/07/05 04:49:46;;;;;;;0.28;0.25;;;;;;;;;;4994429;28;20425;-82
2023/07/05 04:52:12;;;;;;;0.20;0.10;;;;;;;;;;4999577;28;20094;-84
2023/07/05 04:54:38;;;;;;;0.20;0.13;;;;;;;;;;4992836;28;20045;-80
2023/07/05 04:57:05;;;;;;;0.20;0.10;;;;;;;;;;5003029;28;20119;-81
2023/07/05 04:59:31;;;;;;;0.20;0.20;;;;;;;;;;5003837;28;20538;-83
2023/07/05 05:01:57;;;;;;;0.30;0.28;;;;;;;;;;4999261;28;20208;-82
2023/07/05 05:04:23;;;;;;;0.60;0.60;;;;;;;;;;5014731;28;20041;-81
2023/07/05 05:06:49;;;;;;;0.75;0.68;;;;;;;;;;4998542;28;20453;-81
2023/07/05 05:09:15;;;;;;;0.52;0.50;;;;;;;;;;5010066;28;20046;-85
2023/07/05 05:11:41;;;;;;;0.20;0.10;;;;;;;;;;5009111;28;20045;-82
2023/07/05 05:14:07;;;;;;;0.40;0.40;;;;;;;;;;5009334;28;21427;-80
2023/07/05 05:16:33;;;;;;;1.30;0.40;;;;;;;;;;5002812;28;20042;-85
2023/07/05 05:18:59;;;;;;;0.50;0.40;;;;;;;;;;5010304;28;20091;-81
2023/07/05 05:21:25;;;;;;;0.20;0.10;;;;;;;;;;5010418;28;20033;-83
2023/07/05 05:23:51;;;;;;;0.20;0.10;;;;;;;;;;5007557;28;20589;-82
2023/07/05 05:26:17;;;;;;;0.20;0.10;;;;;;;;;;5008094;28;20045;-83
2023/07/05 05:28:43;;;;;;;0.20;0.00;;;;;;;;;;5009555;28;20042;-81
2023/07/05 05:31:11;;;;;;;0.30;0.30;;;;;;;;;;5006982;28;20463;-79
2023/07/05 05:33:37;;;;;;;0.20;0.10;;;;;;;;;;5009076;28;20044;-81
2023/07/05 05:36:04;;;;;;;0.20;0.10;;;;;;;;;;5004210;28;20120;-83
2023/07/05 05:38:30;;;;;;;0.20;0.10;;;;;;;;;;5006315;28;20057;-86
2023/07/05 05:41:04;;;;;;;0.20;0.10;;;;;;;;;;5007468;28;20527;-81
2023/07/05 05:43:30;;;;;;;0.20;0.10;;;;;;;;;;5012450;28;20044;-84
2023/07/05 05:45:56;;;;;;;0.20;0.10;;;;;;;;;;5001067;28;20045;-83
2023/07/05 05:48:22;;;;;;;0.20;0.10;;;;;;;;;;4994477;28;20037;-81
2023/07/05 05:50:48;;;;;;;0.20;0.10;;;;;;;;;;4991613;28;20049;-82
2023/07/05 05:53:14;;;;;;;0.35;0.35;;;;;;;;;;4998015;28;20050;-81
2023/07/05 05:55:40;;;;;;;0.20;0.08;;;;;;;;;;4990591;28;20529;-83
2023/07/05 05:58:07;;;;;;;0.30;0.30;;;;;;;;;;4988023;28;20412;-80
2023/07/05 06:00:34;;;;;;;0.20;0.10;;;;;;;;;;4967679;28;20541;-85
2023/07/05 06:03:01;;;;;;;1.60;0.90;;;;;;;;;;4975154;28;20149;-82
2023/07/05 06:05:27;;;;;;;0.20;0.10;;;;;;;;;;4977480;28;20054;-84
2023/07/05 06:07:53;;;;;;;0.57;0.28;;;;;;;;;;4974487;28;20045;-84
2023/07/05 06:10:22;;;;;;;0.30;0.20;;;;;;;;;;4966876;28;20411;-82
2023/07/05 06:12:48;;;;;;;0.20;0.00;;;;;;;;;;4972386;28;20448;-84
2023/07/05 06:15:14;;;;;;;0.25;0.25;;;;;;;;;;4993486;28;20038;-84
2023/07/05 06:17:43;;;;;;;0.20;0.20;;;;;;;;;;4977742;28;20415;-85
2023/07/05 06:20:16;;;;;;;0.20;0.10;;;;;;;;;;4989163;28;20061;-86
2023/07/05 06:22:42;;;;;;;0.20;0.10;;;;;;;;;;4997483;28;20042;-80
2023/07/05 06:25:14;;;;;;;0.20;0.10;;;;;;;;;;4987945;28;20079;-85
2023/07/05 06:27:43;;;;;;;0.20;0.03;;;;;;;;;;4988590;28;20045;-85
2023/07/05 06:30:09;;;;;;;0.20;0.03;;;;;;;;;;4985239;28;20053;-85
2023/07/05 06:32:35;;;;;;;1.20;1.10;;;;;;;;;;5002682;28;21629;-83
2023/07/05 06:35:02;;;;;;;0.20;0.10;;;;;;;;;;4963780;28;20084;-85
2023/07/05 06:37:28;;;;;;;0.32;0.32;;;;;;;;;;4990862;28;20514;-85
2023/07/05 06:39:54;;;;;;;0.20;0.10;;;;;;;;;;4993972;28;20290;-83
2023/07/05 06:42:25;;;;;;;0.30;0.28;;;;;;;;;;4985908;28;20049;-86
2023/07/05 06:44:54;;;;;;;0.20;0.10;;;;;;;;;;4985870;28;20380;-84
2023/07/05 06:47:20;;;;;;;0.20;0.10;;;;;;;;;;5000307;28;20042;-83
2023/07/05 06:49:49;;;;;;;0.20;0.10;;;;;;;;;;4980549;28;20057;-80
2023/07/05 06:52:21;;;;;;;0.45;0.45;;;;;;;;;;4977872;28;20057;-85
2023/07/05 06:54:47;;;;;;;0.20;0.10;;;;;;;;;;4979952;28;20038;-83
2023/07/05 06:57:19;;;;;;;0.20;0.20;;;;;;;;;;4991357;28;20143;-84
2023/07/05 06:59:51;;;;;;;1.33;0.50;;;;;;;;;;4982693;28;20038;-83
2023/07/05 07:02:26;;;;;;;0.20;0.10;;;;;;;;;;4985942;28;21125;-82
2023/07/05 07:05:01;;;;;;;0.20;0.10;;;;;;;;;;4983223;28;20047;-82
2023/07/05 07:07:33;;;;;;;0.20;0.17;;;;;;;;;;4986053;28;20050;-85
2023/07/05 07:10:05;;;;;;;0.20;0.10;;;;;;;;;;4983593;28;20743;-84
2023/07/05 07:12:34;;;;;;;0.20;0.10;;;;;;;;;;4986623;28;20085;-85
2023/07/05 07:15:07;;;;;;;0.20;0.10;;;;;;;;;;4984438;28;20390;-85
2023/07/05 07:17:33;;;;;;;0.95;0.43;;;;;;;;;;4981714;28;20054;-84
2023/07/05 07:19:59;;;;;;;1.38;1.08;;;;;;;;;;4982387;28;20088;-86
2023/07/05 07:22:25;;;;;;;0.30;0.30;;;;;;;;;;4984950;28;20034;-84
2023/07/05 07:24:51;;;;;;;0.20;0.10;;;;;;;;;;4984468;28;20596;-85
2023/07/05 07:27:18;;;;;;;0.43;0.43;;;;;;;;;;4984984;28;20049;-84
2023/07/05 07:29:44;;;;;;;0.40;0.25;;;;;;;;;;4993846;28;20054;-83
2023/07/05 07:32:10;;;;;;;0.20;0.10;;;;;;;;;;4998837;23;20038;-81
2023/07/05 07:34:36;;;;;;;0.30;0.30;;;;;;;;;;4988555;28;20045;-79
2023/07/05 07:37:02;;;;;;;0.30;0.20;;;;;;;;;;4992513;28;20042;-81
2023/07/05 07:39:29;;;;;;;0.20;0.13;;;;;;;;;;4984596;28;20046;-76
2023/07/05 07:41:56;;;;;;;0.20;0.10;;;;;;;;;;4989805;28;20056;-81
2023/07/05 07:44:22;;;;;;;0.20;0.10;;;;;;;;;;4975260;28;20038;-77
2023/07/05 07:46:48;;;;;;;0.28;0.25;;;;;;;;;;4985375;28;20400;-79
2023/07/05 07:49:14;;;;;;;0.20;0.10;;;;;;;;;;4992407;28;20049;-79
2023/07/05 07:51:44;;;;;;;0.20;0.10;;;;;;;;;;4992039;28;20046;-78
2023/07/05 07:54:17;;;;;;;0.20;0.10;;;;;;;;;;4974705;28;20045;-81
2023/07/05 07:56:44;;;;;;;0.40;0.30;;;;;;;;;;5009064;28;20049;-82
2023/07/05 07:59:11;;;;;;;0.20;0.10;;;;;;;;;;4993198;28;20073;-78
2023/07/05 08:01:38;;;;;;;0.20;0.10;;;;;;;;;;4993609;28;20049;-82
2023/07/05 08:04:04;;;;;;;0.40;0.40;;;;;;;;;;4993574;28;20430;-80
2023/07/05 08:06:31;;;;;;;0.35;0.17;;;;;;;;;;4981652;28;20120;-79
2023/07/05 08:08:57;;;;;;;0.20;0.10;;;;;;;;;;4982079;28;20083;-84
2023/07/05 08:11:23;;;;;;;0.20;0.10;;;;;;;;;;4979680;28;20042;-81
2023/07/05 08:13:50;;;;;;;0.20;0.10;;;;;;;;;;4994180;28;20049;-79
2023/07/05 08:16:16;;;;;;;0.20;0.00;;;;;;;;;;4990991;28;20460;-78
2023/07/05 08:18:44;;;;;;;0.20;0.10;;;;;;;;;;4987318;28;20046;-83
2023/07/05 08:21:12;;;;;;;0.20;0.10;;;;;;;;;;4982363;28;20483;-81
2023/07/05 08:23:38;;;;;;;0.20;0.10;;;;;;;;;;4983447;28;20406;-82
2023/07/05 08:26:04;;;;;;;0.20;0.10;;;;;;;;;;4994202;28;20037;-78
2023/07/05 08:28:31;;;;;;;0.20;0.10;;;;;;;;;;4991442;28;20119;-81
2023/07/05 08:30:58;;;;;;;0.20;0.10;;;;;;;;;;4989552;28;21209;-79
2023/07/05 08:33:26;;;;;;;0.20;0.00;;;;;;;;;;4987239;28;20046;-80
2023/07/05 08:36:06;;;;;;;0.20;0.10;;;;;;;;;;4993068;28;20045;-82
2023/07/05 08:38:32;;;;;;;0.20;0.10;;;;;;;;;;4991621;28;20077;-82
2023/07/05 08:41:11;;;;;;;0.20;0.10;;;;;;;;;;4981968;28;20057;-81
2023/07/05 08:43:40;;;;;;;0.20;0.08;;;;;;;;;;4996503;28;20053;-80
2023/07/05 08:46:09;;;;;;;0.20;0.10;;;;;;;;;;4990043;28;20038;-79
2023/07/05 08:48:35;;;;;;;0.20;0.10;;;;;;;;;;4977818;28;20133;-80
2023/07/05 08:51:02;;;;;;;0.25;0.05;;;;;;;;;;5009835;28;20046;-81
2023/07/05 08:53:29;;;;;;;0.20;0.00;;;;;;;;;;4986873;28;20072;-83
2023/07/05 08:56:09;;;;;;;0.20;0.10;;;;;;;;;;4988861;28;20383;-83
2023/07/05 08:58:56;;;;;;;0.20;0.00;;;;;;;;;;4987196;28;20779;-81
2023/07/05 09:01:30;;;;;;;0.20;0.00;;;;;;;;;;4967657;28;20128;-83
2023/07/05 09:03:56;;;;;;;0.20;0.10;;;;;;;;;;4989750;28;20678;-82
2023/07/05 09:06:24;;;;;;;0.20;0.10;;;;;;;;;;4978186;28;20170;-78
2023/07/05 09:09:09;;;;;;;0.20;0.00;;;;;;;;;;4993466;28;20054;-83
2023/07/05 09:11:41;;;;;;;0.20;0.10;;;;;;;;;;4986143;28;20052;-86
2023/07/05 09:14:17;;;;;;;0.20;0.00;;;;;;;;;;4987216;28;20052;-83
2023/07/05 09:17:01;;;;;;;0.20;0.00;;;;;;;;;;4981721;28;20534;-83
2023/07/05 09:19:44;;;;;;;0.20;0.10;;;;;;;;;;4993618;28;20116;-81
2023/07/05 09:22:12;;;;;;;0.20;0.10;;;;;;;;;;4990566;28;20048;-82
2023/07/05 09:24:39;;;;;;;0.20;0.10;;;;;;;;;;4988547;28;20533;-84
2023/07/05 09:27:08;;;;;;;0.20;0.10;;;;;;;;;;4990239;28;20384;-84
2023/07/05 09:29:40;;;;;;;0.20;0.10;;;;;;;;;;4976846;28;20034;-83
2023/07/05 09:32:15;;;;;;;0.20;0.10;;;;;;;;;;4972426;28;20042;-83
2023/07/05 09:34:47;;;;;;;0.20;0.10;;;;;;;;;;4985427;28;20192;-84
2023/07/05 09:37:21;;;;;;;0.20;0.10;;;;;;;;;;4984733;28;20592;-84
2023/07/05 09:39:53;;;;;;;0.20;0.10;;;;;;;;;;4974765;28;20109;-82
2023/07/05 09:42:23;;;;;;;0.20;0.10;;;;;;;;;;4990110;28;20135;-80
2023/07/05 09:44:49;;;;;;;0.20;0.00;;;;;;;;;;4991407;28;20038;-81
2023/07/05 09:47:15;;;;;;;0.20;0.10;;;;;;;;;;4992139;28;20597;-83
2023/07/05 09:49:41;;;;;;;0.20;0.10;;;;;;;;;;4975782;28;20038;-83
2023/07/05 09:52:11;;;;;;;0.88;0.65;;;;;;;;;;4979049;28;20045;-82
2023/07/05 09:54:38;;;;;;;0.20;0.10;;;;;;;;;;4991754;28;20321;-84
2023/07/05 09:57:04;;;;;;;0.20;0.10;;;;;;;;;;4972199;28;20038;-84
2023/07/05 09:59:31;;;;;;;0.20;0.20;;;;;;;;;;4977887;28;20045;-82
2023/07/05 10:02:12;;;;;;;0.20;0.10;;;;;;;;;;4978005;28;20180;-83
2023/07/05 10:04:58;;;;;;;0.20;0.08;;;;;;;;;;4963193;28;20034;-80
2023/07/05 10:07:29;;;;;;;0.20;0.00;;;;;;;;;;4975643;28;20987;-83
2023/07/05 10:09:56;;;;;;;0.20;0.00;;;;;;;;;;4969124;28;20523;-81
2023/07/05 10:12:24;;;;;;;0.25;0.08;;;;;;;;;;4992333;28;20402;-83
2023/07/05 10:14:56;;;;;;;0.20;0.00;;;;;;;;;;4990303;28;20804;-82
2023/07/05 10:17:23;;;;;;;0.20;0.10;;;;;;;;;;4984913;28;20048;-84
2023/07/05 10:19:51;;;;;;;0.20;0.10;;;;;;;;;;4973730;28;20034;-78
2023/07/05 10:22:28;;;;;;;0.20;0.00;;;;;;;;;;4983005;28;20539;-82
2023/07/05 10:24:59;;;;;;;0.20;0.10;;;;;;;;;;4977198;28;20040;-83
2023/07/05 10:27:27;;;;;;;0.20;0.10;;;;;;;;;;5006280;28;20042;-82
2023/07/05 10:30:00;;;;;;;0.20;0.10;;;;;;;;;;4972609;28;20514;-82
2023/07/05 10:32:27;;;;;;;0.20;0.00;;;;;;;;;;4986447;28;21366;-82
2023/07/05 10:34:55;;;;;;;0.20;0.10;;;;;;;;;;4971799;28;20096;-87
2023/07/05 10:37:34;;;;;;;0.75;0.43;;;;;;;;;;4999650;28;20052;-82
2023/07/05 10:40:09;;;;;;;0.63;0.25;;;;;;;;;;4991235;28;20096;-83
2023/07/05 10:42:49;;;;;;;0.20;0.10;;;;;;;;;;4992954;28;20072;-83
2023/07/05 10:45:17;;;;;;;0.20;0.10;;;;;;;;;;4994389;28;20491;-83
2023/07/05 10:47:45;;;;;;;0.90;0.40;;;;;;;;;;4976827;28;20048;-85
2023/07/05 10:50:13;;;;;;;0.20;0.10;;;;;;;;;;4966900;28;20089;-85
2023/07/05 10:52:42;;;;;;;0.20;0.10;;;;;;;;;;4954182;28;20054;-82
2023/07/05 10:55:13;;;;;;;0.20;0.10;;;;;;;;;;5018869;28;20103;-84
2023/07/05 10:57:41;;;;;;;0.20;0.10;;;;;;;;;;5038958;28;20056;-83
2023/07/05 11:00:21;;;;;;;0.20;0.10;;;;;;;;;;5006827;28;20125;-84
2023/07/05 11:02:55;;;;;;;0.20;0.20;;;;;;;;;;5018064;28;20605;-83
2023/07/05 11:05:21;;;;;;;0.20;0.10;;;;;;;;;;5013347;28;20560;-84
2023/07/05 11:07:50;;;;;;;0.20;0.10;;;;;;;;;;5003502;28;20055;-81
2023/07/05 11:10:16;;;;;;;0.20;0.10;;;;;;;;;;5015688;28;20655;-82
2023/07/05 11:12:43;;;;;;;0.20;0.10;;;;;;;;;;5000511;28;20052;-81
2023/07/05 11:15:14;;;;;;;0.20;0.10;;;;;;;;;;5020847;28;20710;-82
2023/07/05 11:17:46;;;;;;;0.20;0.10;;;;;;;;;;5002617;28;20046;-82
2023/07/05 11:20:31;;;;;;;0.20;0.10;;;;;;;;;;5017710;28;20129;-82
2023/07/05 11:22:57;;;;;;;0.20;0.10;;;;;;;;;;5019916;28;20083;-82
2023/07/05 11:25:43;;;;;;;0.20;0.10;;;;;;;;;;5018565;28;20045;-82
2023/07/05 11:28:29;;;;;;;0.20;0.10;;;;;;;;;;5018766;28;20505;-83
2023/07/05 11:30:56;;;;;;;0.20;0.10;;;;;;;;;;5004464;28;20048;-82
2023/07/05 11:33:22;;;;;;;0.20;0.10;;;;;;;;;;5005169;28;20055;-83
2023/07/05 11:35:50;;;;;;;0.20;0.10;;;;;;;;;;5017431;28;20064;-82
2023/07/05 11:38:35;;;;;;;0.20;0.10;;;;;;;;;;5019709;28;20552;-85
2023/07/05 11:41:04;;;;;;;0.20;0.10;;;;;;;;;;5015160;28;20038;-82
2023/07/05 11:43:36;;;;;;;0.20;0.10;;;;;;;;;;5014641;28;20072;-80
2023/07/05 11:46:02;;;;;;;0.20;0.10;;;;;;;;;;5012308;28;20038;-84
2023/07/05 11:48:36;;;;;;;0.20;0.10;;;;;;;;;;5012275;28;20041;-83
2023/07/05 11:51:02;;;;;;;0.20;0.10;;;;;;;;;;5013282;28;20145;-80
2023/07/05 11:53:32;;;;;;;0.20;0.08;;;;;;;;;;5002168;28;20128;-84
2023/07/05 11:56:00;;;;;;;0.20;0.10;;;;;;;;;;5009489;28;20460;-83
2023/07/05 11:58:35;;;;;;;0.20;0.10;;;;;;;;;;4997244;28;20034;-83
2023/07/05 12:01:02;;;;;;;0.20;0.20;;;;;;;;;;4994849;28;20184;-86
2023/07/05 12:03:30;;;;;;;0.20;0.10;;;;;;;;;;5026104;28;20045;-82
2023/07/05 12:05:59;;;;;;;0.20;0.10;;;;;;;;;;5000478;28;20049;-81
2023/07/05 12:08:45;;;;;;;0.20;0.10;;;;;;;;;;5011741;28;20063;-82
2023/07/05 12:11:14;;;;;;;0.20;0.10;;;;;;;;;;5017653;28;20045;-83
2023/07/05 12:13:41;;;;;;;0.20;0.00;;;;;;;;;;5013252;28;20068;-84
2023/07/05 12:16:08;;;;;;;0.20;0.10;;;;;;;;;;5011243;28;20097;-83
2023/07/05 12:18:34;;;;;;;0.22;0.10;;;;;;;;;;4999980;28;21700;-81
2023/07/05 12:21:04;;;;;;;0.20;0.10;;;;;;;;;;4998315;28;20041;-81
2023/07/05 12:23:38;;;;;;;0.20;0.10;;;;;;;;;;5017994;28;20046;-83
2023/07/05 12:26:05;;;;;;;0.20;0.03;;;;;;;;;;4996639;28;20049;-86
2023/07/05 12:28:32;;;;;;;0.20;0.10;;;;;;;;;;5013961;28;20049;-86
2023/07/05 12:31:01;;;;;;;0.20;0.10;;;;;;;;;;5016206;28;20235;-83
2023/07/05 12:33:28;;;;;;;0.20;0.10;;;;;;;;;;5001396;28;20045;-85
2023/07/05 12:36:14;;;;;;;0.20;0.10;;;;;;;;;;5015059;28;20236;-88
2023/07/05 12:38:41;;;;;;;0.20;0.00;;;;;;;;;;4999651;28;20048;-83
2023/07/05 12:41:14;;;;;;;0.20;0.10;;;;;;;;;;5016445;28;20034;-83
2023/07/05 12:43:44;;;;;;;0.20;0.10;;;;;;;;;;5018749;28;20393;-84
2023/07/05 12:46:14;;;;;;;0.20;0.10;;;;;;;;;;4991096;28;20251;-80
2023/07/05 12:48:41;;;;;;;0.20;0.10;;;;;;;;;;5012025;28;20124;-83
2023/07/05 12:51:10;;;;;;;0.20;0.10;;;;;;;;;;4992642;28;20134;-83
2023/07/05 12:53:36;;;;;;;0.20;0.00;;;;;;;;;;5014625;28;20099;-83
2023/07/05 12:56:08;;;;;;;0.20;0.10;;;;;;;;;;5011064;28;20073;-85
2023/07/05 12:58:34;;;;;;;0.20;0.10;;;;;;;;;;5002431;28;20498;-82
2023/07/05 13:01:01;;;;;;;5.88;0.30;;;;;;;;;;4990786;28;20083;-81
2023/07/05 13:03:28;;;;;;;0.85;0.22;;;;;;;;;;5011227;28;20621;-85
2023/07/05 13:05:55;;;;;;;0.20;0.00;;;;;;;;;;5004821;28;20680;-84
2023/07/05 13:08:21;;;;;;;0.20;0.05;;;;;;;;;;5009075;28;20048;-82
2023/07/05 13:10:47;;;;;;;0.20;0.00;;;;;;;;;;5015861;28;20391;-86
2023/07/05 13:13:25;;;;;;;0.20;0.10;;;;;;;;;;5010419;28;20438;-81
2023/07/05 13:15:51;;;;;;;0.20;0.20;;;;;;;;;;4991466;28;20073;-84
2023/07/05 13:18:21;;;;;;;0.20;0.00;;;;;;;;;;5010201;28;20065;-83
2023/07/05 13:20:48;;;;;;;0.20;0.10;;;;;;;;;;5001170;28;20041;-82
2023/07/05 13:23:14;;;;;;;0.20;0.10;;;;;;;;;;4998191;28;20038;-81
2023/07/05 13:25:40;;;;;;;0.20;0.10;;;;;;;;;;5016277;28;20041;-84
2023/07/05 13:28:18;;;;;;;0.20;0.10;;;;;;;;;;5000303;28;20518;-81
2023/07/05 13:30:44;;;;;;;0.20;0.10;;;;;;;;;;4995102;28;20095;-81
2023/07/05 13:33:12;;;;;;;0.20;0.10;;;;;;;;;;5017870;23;20116;-81
2023/07/05 13:35:38;;;;;;;0.20;0.10;;;;;;;;;;5017859;28;20045;-82
2023/07/05 13:38:04;;;;;;;0.20;0.10;;;;;;;;;;5014833;28;20029;-84
2023/07/05 13:40:31;;;;;;;0.20;0.05;;;;;;;;;;5017690;28;20057;-81
2023/07/05 13:42:57;;;;;;;0.20;0.10;;;;;;;;;;5005313;28;20051;-84
2023/07/05 13:45:26;;;;;;;0.20;0.20;;;;;;;;;;5031837;28;20704;-83
2023/07/05 13:47:53;;;;;;;0.20;0.00;;;;;;;;;;5026410;28;20543;-84
2023/07/05 13:50:19;;;;;;;0.20;0.10;;;;;;;;;;5009850;28;20477;-83
2023/07/05 13:52:46;;;;;;;0.20;0.10;;;;;;;;;;5004186;28;20087;-83
2023/07/05 13:55:20;;;;;;;0.20;0.10;;;;;;;;;;5006466;28;20052;-81
2023/07/05 13:57:55;;;;;;;0.20;0.10;;;;;;;;;;5011944;28;20043;-81
2023/07/05 14:00:23;;;;;;;0.20;0.10;;;;;;;;;;5031582;28;20091;-78
2023/07/05 14:02:49;;;;;;;0.20;0.10;;;;;;;;;;5023682;28;20233;-83
2023/07/05 14:05:17;;;;;;;0.20;0.05;;;;;;;;;;5031791;28;20029;-85
2023/07/05 14:07:43;;;;;;;0.20;0.10;;;;;;;;;;5017114;28;20498;-84
2023/07/05 14:10:13;;;;;;;0.20;0.10;;;;;;;;;;5018708;28;20200;-83
2023/07/05 14:12:39;;;;;;;0.20;0.10;;;;;;;;;;5009621;28;20052;-81
2023/07/05 14:15:16;;;;;;;0.20;0.10;;;;;;;;;;5017662;28;21467;-82
2023/07/05 14:17:44;;;;;;;0.20;0.10;;;;;;;;;;5051867;28;20043;-84
2023/07/05 14:20:10;;;;;;;1.40;0.60;;;;;;;;;;5014644;28;20045;-82
2023/07/05 14:22:36;;;;;;;0.20;0.10;;;;;;;;;;5012319;28;20037;-83
2023/07/05 14:25:02;;;;;;;0.20;0.10;;;;;;;;;;5036248;28;20049;-81
2023/07/05 14:27:28;;;;;;;20.10;1.75;;;;;;;;;;5018949;28;20414;-81
2023/07/05 14:29:54;;;;;;;0.20;0.10;;;;;;;;;;5013793;28;20044;-81
2023/07/05 14:32:20;;;;;;;0.20;0.10;;;;;;;;;;5033594;28;20086;-80
2023/07/05 14:34:47;;;;;;;0.20;0.00;;;;;;;;;;5019652;28;20075;-81
2023/07/05 14:37:13;;;;;;;0.30;0.30;;;;;;;;;;5012338;28;20174;-82
2023/07/05 14:39:39;;;;;;;0.20;0.10;;;;;;;;;;5024794;28;20104;-85
2023/07/05 14:42:06;;;;;;;0.20;0.13;;;;;;;;;;5039765;28;20076;-81
2023/07/05 14:44:32;;;;;;;0.20;0.10;;;;;;;;;;5020332;28;20030;-80
2023/07/05 14:46:58;;;;;;;0.20;0.10;;;;;;;;;;5019628;28;20420;-82
2023/07/05 14:49:24;;;;;;;0.20;0.10;;;;;;;;;;5033364;28;20130;-81
2023/07/05 14:51:52;;;;;;;0.20;0.10;;;;;;;;;;5029870;28;20413;-84
2023/07/05 14:54:20;;;;;;;0.40;0.22;;;;;;;;;;5030889;28;20175;-88
2023/07/05 14:56:46;;;;;;;0.20;0.20;;;;;;;;;;5039211;28;21207;-84